Time;durP1;ratioP1;P1;durP2;ratioP2;P2;SDS_P1;SDS_P2;PMS_P1;PMS_P2;Temp;Humidity;BMP_temperature;BMP_pressure;BME280_temperature;BME280_humidity;BME280_pressure;Samples;Min_cycle;Max_cycle;Signal;HPM_P1;HPM_P2
2022/09/15 00:03:13;;;;;;;2.50;2.05;;;20.30;99.90;;;18.82;86.91;98899.00;10292965;28;98422;-86
2022/09/15 00:08:16;;;;;;;2.88;1.83;;;20.30;99.90;;;18.87;86.71;98861.38;10304991;28;98019;-85
2022/09/15 00:13:20;;;;;;;2.33;1.58;;;20.40;99.90;;;18.88;86.65;98826.13;10305357;28;97334;-84
2022/09/15 00:18:24;;;;;;;1.90;1.50;;;20.40;99.90;;;18.92;87.19;98848.78;10289263;28;96548;-84
2022/09/15 00:23:26;;;;;;;2.15;1.67;;;20.50;99.90;;;18.87;87.32;98866.75;10289957;28;96515;-84
2022/09/15 00:28:31;;;;;;;3.90;2.03;;;20.40;99.90;;;18.80;87.91;98874.22;10289085;28;97321;-84
2022/09/15 00:33:34;;;;;;;2.40;1.90;;;20.30;99.90;;;18.78;88.22;98909.47;10288331;28;98089;-85
2022/09/15 00:38:38;;;;;;;3.42;1.90;;;20.20;99.90;;;18.77;89.32;98932.03;10288846;28;96666;-84
2022/09/15 00:44:01;;;;;;;2.30;1.88;;;20.20;99.90;;;18.80;90.62;98942.31;10285530;28;96660;-85
2022/09/15 00:49:17;;;;;;;3.17;2.00;;;20.20;99.90;;;18.88;91.70;98947.25;10288343;28;98018;-85
2022/09/15 00:54:26;;;;;;;2.08;1.80;;;20.20;99.90;;;18.97;91.79;98953.81;10271438;28;96769;-84
2022/09/15 00:59:32;;;;;;;2.80;1.60;;;20.20;99.90;;;19.04;92.14;98942.03;10313014;28;97270;-84
2022/09/15 01:04:35;;;;;;;2.40;1.60;;;20.30;99.90;;;19.08;92.13;98948.56;10290727;28;96683;-85
2022/09/15 01:10:01;;;;;;;3.50;1.70;;;20.40;99.90;;;19.13;91.96;98962.88;10266217;28;96539;-85
2022/09/15 01:15:05;;;;;;;2.53;1.70;;;20.40;99.90;;;19.17;91.68;98961.28;10295823;28;98447;-86
2022/09/15 01:20:32;;;;;;;3.42;1.70;;;20.40;99.90;;;19.19;91.58;98966.41;10281540;28;97718;-85
2022/09/15 01:26:32;;;;;;;3.60;1.80;;;20.50;99.90;;;19.17;91.82;98968.56;10304407;28;96686;-83
2022/09/15 01:37:38;;;;;;;2.60;1.60;;;20.50;99.90;;;19.10;92.39;98968.78;10290217;28;98641;-84
2022/09/15 01:42:44;;;;;;;2.03;1.50;;;20.40;99.90;;;19.05;92.39;98978.66;10271566;28;96632;-84
2022/09/15 01:47:54;;;;;;;1.88;1.27;;;20.40;99.90;;;19.02;92.49;98973.81;10285369;28;96729;-84
2022/09/15 01:53:02;;;;;;;2.88;1.77;;;20.30;99.90;;;18.99;92.56;98983.19;10265360;28;97053;-84
2022/09/15 01:58:07;;;;;;;2.10;1.73;;;20.30;99.90;;;18.98;92.79;98971.59;10292017;28;96570;-84
2022/09/15 02:03:26;;;;;;;1.50;1.30;;;20.30;99.90;;;18.96;93.12;98962.97;10293507;28;96693;-84
2022/09/15 02:08:35;;;;;;;1.88;1.45;;;20.30;99.90;;;18.95;93.22;98961.34;10292326;28;96654;-85
2022/09/15 02:14:02;;;;;;;2.88;1.73;;;20.20;99.90;;;18.97;93.21;98963.78;10291760;28;97199;-85
2022/09/15 02:19:17;;;;;;;3.83;1.70;;;20.30;99.90;;;18.98;93.21;98958.13;10321609;28;96622;-87
2022/09/15 02:24:38;;;;;;;1.70;1.30;;;20.30;99.90;;;18.99;93.23;98962.44;10290193;28;97969;-87
2022/09/15 02:29:45;;;;;;;2.28;1.52;;;20.30;99.90;;;18.94;92.81;98954.31;10290394;28;98350;-87
2022/09/15 02:34:50;;;;;;;2.03;1.50;;;20.30;99.90;;;18.90;92.81;98955.09;10272817;28;98142;-86
2022/09/15 02:39:58;;;;;;;2.05;1.50;;;20.30;99.90;;;18.80;92.63;98963.03;10306962;28;97985;-86
2022/09/15 02:45:03;;;;;;;2.08;1.45;;;20.20;99.90;;;18.70;92.80;98969.09;10293929;28;96837;-86
2022/09/15 02:50:06;;;;;;;1.65;1.30;;;20.10;99.90;;;18.65;92.71;98958.25;10279652;28;97207;-86
2022/09/15 02:55:09;;;;;;;2.13;1.33;;;20.00;99.90;;;18.66;93.24;98965.28;10274262;28;96487;-87
2022/09/15 03:00:15;;;;;;;1.80;1.00;;;20.00;99.90;;;18.72;93.19;98950.84;10303387;28;96595;-85
2022/09/15 03:05:23;;;;;;;1.38;1.00;;;20.10;99.90;;;18.80;92.88;98958.47;10304528;28;96700;-84
2022/09/15 03:10:26;;;;;;;1.60;1.20;;;20.20;99.90;;;18.82;92.78;98950.13;10289336;28;96654;-84
2022/09/15 03:15:29;;;;;;;2.03;1.00;;;20.20;99.90;;;18.84;92.35;98940.78;10291850;28;96670;-84
2022/09/15 03:20:32;;;;;;;1.55;1.00;;;20.20;99.90;;;18.87;92.24;98960.97;10251546;28;96515;-85
2022/09/15 03:25:35;;;;;;;1.70;0.80;;;20.30;99.90;;;18.88;91.68;98967.97;10275487;28;96620;-85
2022/09/15 03:30:39;;;;;;;1.23;0.90;;;20.30;99.90;;;18.86;91.28;98973.63;10300861;28;96899;-86
2022/09/15 03:35:45;;;;;;;1.23;0.85;;;20.30;99.90;;;18.88;91.31;98959.91;10286627;28;96681;-86
2022/09/15 03:41:02;;;;;;;2.90;0.90;;;20.30;99.90;;;18.91;90.49;98967.47;10291021;28;96641;-86
2022/09/15 03:46:08;;;;;;;1.25;0.85;;;20.30;99.90;;;18.90;90.41;98957.78;10283598;28;98208;-87
2022/09/15 03:51:11;;;;;;;1.98;1.23;;;20.30;99.90;;;18.87;90.44;98964.47;10304553;28;97138;-87
2022/09/15 03:56:31;;;;;;;2.17;1.00;;;20.30;99.90;;;18.81;90.48;98964.66;10292005;28;96716;-87
2022/09/15 04:01:34;;;;;;;1.67;0.85;;;20.20;99.90;;;18.74;90.70;98961.34;10293474;28;96643;-86
2022/09/15 04:06:37;;;;;;;1.73;1.30;;;20.10;99.90;;;18.70;90.69;98963.72;10284918;28;97293;-88
2022/09/15 04:11:41;;;;;;;1.17;0.80;;;20.10;99.90;;;18.69;91.15;98972.88;10278303;28;97960;-88
2022/09/15 04:16:44;;;;;;;2.65;1.00;;;20.10;99.90;;;18.64;90.69;98972.78;10276149;28;99284;-87
2022/09/15 04:21:47;;;;;;;1.38;0.90;;;20.00;99.90;;;18.63;90.83;98973.84;10309897;28;96690;-85
2022/09/15 04:26:50;;;;;;;1.05;0.73;;;20.00;99.90;;;18.61;90.42;98962.53;10260011;28;96678;-87
2022/09/15 04:31:53;;;;;;;1.52;0.90;;;19.90;99.90;;;18.60;90.50;98966.28;10302759;28;97271;-86
2022/09/15 04:36:56;;;;;;;0.90;0.68;;;19.90;99.90;;;18.58;90.25;98977.28;10308102;28;98061;-87
2022/09/15 04:41:59;;;;;;;1.10;0.60;;;19.90;99.90;;;18.64;90.09;98978.16;10290002;28;96542;-87
2022/09/15 04:47:03;;;;;;;0.85;0.50;;;20.00;99.90;;;18.71;89.19;98984.19;10316641;28;96622;-87
2022/09/15 04:52:05;;;;;;;2.97;0.70;;;20.10;99.90;;;18.82;88.50;98985.13;10285782;28;96641;-86
2022/09/15 04:57:11;;;;;;;1.05;0.43;;;20.20;99.90;;;18.91;87.97;98992.53;10283977;28;97058;-86
2022/09/15 05:02:14;;;;;;;0.82;0.40;;;20.30;99.90;;;19.01;87.28;98997.19;10297387;28;97154;-86
2022/09/15 05:07:17;;;;;;;1.58;0.52;;;20.40;99.90;;;19.08;86.57;98981.69;10294974;28;96691;-88
2022/09/15 05:12:20;;;;;;;0.60;0.30;;;20.50;99.90;;;19.15;86.30;99003.84;10292265;28;96622;-87
2022/09/15 05:17:23;;;;;;;0.75;0.52;;;20.60;99.90;;;19.22;86.07;99004.44;10289704;28;97941;-88
2022/09/15 05:22:28;;;;;;;0.70;0.50;;;20.70;99.90;;;19.27;85.93;98997.50;10308600;28;97436;-88
2022/09/15 05:27:32;;;;;;;1.20;0.50;;;20.70;99.90;;;19.31;85.44;99012.91;10282551;28;96610;-85
2022/09/15 05:32:35;;;;;;;0.90;0.50;;;20.80;99.90;;;19.35;85.11;99011.31;10293697;28;96546;-85
2022/09/15 05:37:38;;;;;;;0.90;0.50;;;20.80;99.90;;;19.39;84.89;99033.16;10295396;28;96696;-86
2022/09/15 05:42:41;;;;;;;0.80;0.52;;;20.90;99.90;;;19.40;84.77;99032.91;10309586;28;96492;-86
2022/09/15 05:47:43;;;;;;;0.60;0.50;;;20.90;99.90;;;19.45;84.71;99035.66;10297139;28;96662;-85
2022/09/15 05:52:50;;;;;;;1.08;0.73;;;20.90;99.90;;;19.52;85.21;99046.22;10271761;28;96370;-87
2022/09/15 05:57:53;;;;;;;0.90;0.52;;;21.00;99.90;;;19.57;85.49;99045.47;10295757;28;96892;-87
2022/09/15 06:02:56;;;;;;;1.42;0.90;;;21.10;99.90;;;19.60;85.35;99028.81;10292836;28;96733;-86
2022/09/15 06:07:59;;;;;;;1.13;0.60;;;21.10;99.90;;;19.65;85.31;99045.03;10293229;28;96548;-86
2022/09/15 06:13:02;;;;;;;1.50;1.10;;;21.10;99.90;;;19.70;85.74;99026.22;10298721;28;96608;-86
2022/09/15 06:18:05;;;;;;;0.77;0.55;;;21.10;99.90;;;19.75;85.80;99023.59;10279714;28;96552;-86
2022/09/15 06:23:07;;;;;;;0.50;0.50;;;21.20;99.90;;;19.85;85.63;99045.25;10295437;28;96501;-87
2022/09/15 06:28:10;;;;;;;2.20;0.73;;;21.30;99.90;;;19.96;85.53;99052.31;10294347;28;96648;-87
2022/09/15 06:33:13;;;;;;;1.02;0.73;;;21.40;99.90;;;20.10;85.46;99052.72;10284521;28;97403;-87
2022/09/15 06:38:16;;;;;;;0.80;0.68;;;21.50;99.90;;;20.23;85.32;99056.88;10283508;28;97325;-87
2022/09/15 06:43:19;;;;;;;0.95;0.50;;;21.60;99.90;;;20.36;84.67;99056.41;10310211;28;96765;-85
2022/09/15 06:48:22;;;;;;;1.50;0.77;;;21.70;99.90;;;20.47;84.02;99060.03;10295443;28;96696;-86
2022/09/15 06:53:31;;;;;;;0.65;0.50;;;21.90;99.90;;;20.55;83.00;99071.13;10293602;28;96583;-87
2022/09/15 06:58:37;;;;;;;1.20;0.63;;;22.00;99.90;;;20.62;82.54;99070.09;10295693;28;96621;-87
2022/09/15 07:03:42;;;;;;;0.82;0.68;;;22.10;99.90;;;20.70;82.16;99075.84;10289916;28;98044;-87
2022/09/15 07:08:46;;;;;;;1.02;0.70;;;22.10;99.90;;;20.77;81.98;99084.50;10298603;28;96571;-87
2022/09/15 07:13:49;;;;;;;1.08;0.65;;;22.20;99.90;;;20.86;81.91;99090.22;10293185;28;96913;-86
2022/09/15 07:18:55;;;;;;;1.00;0.60;;;22.30;99.90;;;20.97;81.24;99110.78;10292903;28;96502;-87
2022/09/15 07:23:58;;;;;;;1.15;0.70;;;22.40;99.90;;;21.14;80.45;99116.00;10293139;28;97310;-87
2022/09/15 07:29:08;;;;;;;1.67;0.87;;;22.50;99.90;;;21.31;78.75;99099.63;10290081;28;96596;-86
2022/09/15 07:34:11;;;;;;;0.98;0.70;;;22.60;99.90;;;21.54;77.84;99099.19;10269932;28;96651;-87
2022/09/15 07:39:14;;;;;;;2.25;0.75;;;22.80;99.90;;;21.72;77.22;99097.88;10293303;28;96596;-87
2022/09/15 07:44:17;;;;;;;2.00;0.70;;;23.00;99.90;;;21.82;76.35;99099.75;10285319;28;98126;-85
2022/09/15 07:49:19;;;;;;;2.03;0.90;;;23.10;99.90;;;21.80;75.38;99107.34;10291371;28;96531;-89
2022/09/15 07:54:22;;;;;;;0.75;0.68;;;23.20;99.90;;;21.82;74.44;99102.47;10290577;28;97211;-86
2022/09/15 07:59:25;;;;;;;1.65;0.70;;;23.10;99.90;;;21.81;73.74;99104.38;10292020;28;96430;-87
2022/09/15 08:04:28;;;;;;;1.55;0.70;;;23.10;99.90;;;21.89;73.68;99101.16;10292772;28;97353;-88
2022/09/15 08:09:31;;;;;;;1.02;0.60;;;23.20;99.90;;;21.94;72.50;99113.84;10285397;28;96528;-85
2022/09/15 08:14:34;;;;;;;0.77;0.65;;;23.30;99.90;;;22.04;72.34;99110.34;10287154;28;97428;-88
2022/09/15 08:19:37;;;;;;;1.27;0.63;;;23.30;99.90;;;22.30;71.87;99094.94;10328480;28;98100;-85
2022/09/15 08:24:40;;;;;;;1.48;0.70;;;23.60;99.90;;;22.62;70.98;99109.00;10297527;28;96683;-85
2022/09/15 08:29:42;;;;;;;0.95;0.55;;;23.90;99.90;;;22.99;69.91;99096.22;10297114;28;96493;-85
2022/09/15 08:34:45;;;;;;;2.50;0.63;;;24.20;99.90;;;23.28;67.02;99099.09;10266293;28;96776;-85
2022/09/15 08:39:48;;;;;;;0.70;0.30;;;24.50;99.90;;;23.44;63.53;99077.03;10289179;28;96498;-86
2022/09/15 08:45:08;;;;;;;0.80;0.45;;;24.80;97.80;;;23.61;62.13;99071.25;10315342;28;96680;-85
2022/09/15 08:50:21;;;;;;;0.52;0.30;;;24.90;96.90;;;23.80;61.66;99051.63;10264622;28;96602;-85
2022/09/15 08:55:58;;;;;;;0.57;0.32;;;25.10;96.50;;;24.05;61.51;99059.59;10254818;28;96995;-86
2022/09/15 09:01:39;;;;;;;1.35;0.47;;;25.30;95.60;;;24.29;58.93;99070.53;10269187;28;97550;-85
2022/09/15 09:07:10;;;;;;;0.82;0.35;;;25.60;95.00;;;24.55;58.20;99041.25;10308136;28;96716;-87
2022/09/15 09:12:31;;;;;;;0.80;0.38;;;25.80;94.10;;;24.70;57.78;99027.47;10297672;28;96875;-84
2022/09/15 09:18:30;;;;;;;0.82;0.43;;;26.00;92.90;;;24.89;55.87;99021.28;10289116;28;96553;-85
2022/09/15 09:23:42;;;;;;;0.30;0.20;;;26.20;91.80;;;25.02;54.72;99023.31;10270739;28;96849;-85
2022/09/15 09:29:25;;;;;;;0.70;0.32;;;26.30;90.90;;;25.34;53.62;99003.59;10295545;28;96534;-85
2022/09/15 09:34:42;;;;;;;1.42;0.40;;;26.50;89.50;;;25.52;51.43;99004.72;10279022;28;97071;-86
2022/09/15 09:39:46;;;;;;;0.60;0.30;;;26.70;86.20;;;25.65;50.37;99014.03;10302176;28;96529;-85
2022/09/15 09:44:50;;;;;;;1.70;0.30;;;26.90;84.70;;;25.77;49.76;99001.63;10299160;28;96796;-90
2022/09/15 09:49:52;;;;;;;2.35;0.40;;;27.00;82.00;;;25.71;49.03;98985.63;10294332;28;97215;-85
2022/09/15 09:55:17;;;;;;;0.68;0.20;;;27.00;80.30;;;25.65;49.91;98989.53;10282709;28;97163;-85
2022/09/15 10:00:35;;;;;;;0.73;0.28;;;27.00;79.90;;;25.88;49.92;98983.22;10283623;28;97273;-85
2022/09/15 10:05:38;;;;;;;0.20;0.20;;;27.10;80.50;;;26.14;49.11;98970.75;10294919;28;96445;-85
2022/09/15 10:10:53;;;;;;;1.13;0.50;;;27.40;80.10;;;26.42;48.97;98958.03;10293336;28;96548;-84
2022/09/15 10:16:04;;;;;;;0.77;0.55;;;27.70;79.00;;;26.67;47.39;98947.72;10275287;28;97152;-85
2022/09/15 10:21:10;;;;;;;0.70;0.40;;;28.00;77.40;;;26.86;46.08;98939.41;10301679;28;96540;-88
2022/09/15 10:26:21;;;;;;;0.52;0.20;;;28.10;75.00;;;26.76;45.99;98935.00;10249399;28;97252;-84
2022/09/15 10:31:30;;;;;;;1.20;0.28;;;28.10;74.00;;;26.71;46.26;98923.41;10253053;28;96652;-85
2022/09/15 10:36:33;;;;;;;0.30;0.28;;;28.10;73.50;;;26.54;45.68;98932.19;10326142;28;96556;-85
2022/09/15 10:42:37;;;;;;;2.05;0.30;;;28.00;73.50;;;26.38;46.88;98935.19;10325386;28;96570;-86
2022/09/15 10:48:05;;;;;;;0.60;0.17;;;27.80;72.80;;;26.28;47.54;98943.56;10262105;28;96663;-85
2022/09/15 10:53:46;;;;;;;0.50;0.30;;;27.70;73.90;;;26.22;47.46;98939.31;10293045;28;97375;-85
2022/09/15 10:59:01;;;;;;;0.63;0.40;;;27.60;73.60;;;26.17;47.51;98942.16;10295040;28;96592;-84
2022/09/15 11:04:16;;;;;;;0.47;0.30;;;27.60;74.00;;;26.20;48.37;98943.44;10294098;28;96641;-85
2022/09/15 11:09:47;;;;;;;0.98;0.30;;;27.60;74.90;;;26.28;48.58;98927.22;10293310;28;96523;-85
2022/09/15 11:15:26;;;;;;;0.35;0.28;;;27.70;74.40;;;26.22;48.53;98928.44;10277474;28;96547;-85
2022/09/15 11:20:50;;;;;;;0.40;0.38;;;27.60;74.50;;;26.11;48.33;98930.53;10305171;28;96747;-84
2022/09/15 11:26:25;;;;;;;0.47;0.30;;;27.60;74.60;;;25.93;48.43;98925.16;10274066;28;97007;-86
2022/09/15 11:31:41;;;;;;;0.30;0.22;;;27.40;74.40;;;25.84;50.14;98934.00;10282064;28;96625;-85
2022/09/15 11:36:53;;;;;;;0.93;0.30;;;27.30;75.30;;;25.73;49.93;98935.31;10278887;28;98338;-85
2022/09/15 11:42:34;;;;;;;1.38;0.40;;;27.20;75.50;;;25.58;50.20;98932.81;10298370;28;96507;-85
2022/09/15 11:47:47;;;;;;;0.73;0.40;;;27.10;75.80;;;25.49;50.94;98899.22;10292087;28;97929;-85
2022/09/15 11:53:15;;;;;;;1.00;0.65;;;26.90;76.10;;;25.47;51.74;98896.00;10270615;28;96625;-85
2022/09/15 11:59:01;;;;;;;0.52;0.30;;;26.90;76.90;;;25.54;52.82;98867.31;10296623;28;96408;-85
2022/09/15 12:04:16;;;;;;;0.75;0.38;;;26.90;77.50;;;25.66;52.31;98868.75;10292375;28;96554;-85
2022/09/15 12:09:20;;;;;;;0.55;0.30;;;27.10;77.70;;;25.66;51.92;98885.88;10265403;28;98558;-85
2022/09/15 12:14:34;;;;;;;1.75;0.50;;;27.10;77.50;;;25.53;52.00;98892.09;10282270;28;96666;-85
2022/09/15 12:20:03;;;;;;;1.60;0.40;;;27.00;77.40;;;25.38;52.97;98892.34;10310216;28;96670;-85
2022/09/15 12:25:20;;;;;;;1.95;0.40;;;26.90;78.20;;;25.17;54.81;98886.41;10308438;28;96457;-85
2022/09/15 12:30:40;;;;;;;3.83;0.50;;;26.60;79.20;;;24.92;59.34;98884.84;10275480;28;96727;-84
2022/09/15 12:35:43;;;;;;;0.77;0.60;;;26.40;83.50;;;24.56;62.66;98888.88;10299955;28;97835;-85
2022/09/15 12:40:58;;;;;;;1.10;0.75;;;26.10;85.70;;;24.18;65.56;98892.56;10280619;28;97874;-88
2022/09/15 12:46:01;;;;;;;0.95;0.50;;;25.70;89.40;;;23.82;67.82;98905.72;10293166;28;96818;-86
2022/09/15 12:51:09;;;;;;;0.85;0.60;;;25.30;90.80;;;23.36;70.28;98906.88;10292158;28;96691;-86
2022/09/15 12:56:30;;;;;;;0.80;0.50;;;24.80;93.20;;;22.92;73.04;98912.34;10291201;28;98279;-87
2022/09/15 13:01:50;;;;;;;1.40;0.52;;;24.30;97.50;;;22.43;74.46;98894.09;10287721;28;96675;-88
2022/09/15 13:07:14;;;;;;;2.60;0.70;;;23.80;98.80;;;22.07;74.05;98915.88;10284858;28;96795;-87
2022/09/15 13:12:18;;;;;;;0.90;0.60;;;23.40;98.90;;;21.90;75.44;98923.47;10290474;28;96405;-87
2022/09/15 13:17:24;;;;;;;1.65;0.90;;;23.20;99.80;;;21.83;76.37;98887.75;10301248;28;96642;-86
2022/09/15 13:22:46;;;;;;;0.88;0.50;;;23.10;99.90;;;21.79;77.24;98851.56;10288589;28;96547;-86
2022/09/15 13:27:56;;;;;;;119.47;33.53;;;23.20;99.90;;;21.82;78.02;98867.22;10295332;28;96524;-87
2022/09/15 13:33:42;;;;;;;12.77;4.97;;;23.20;99.90;;;21.84;78.40;98884.81;10253754;28;96542;-86
2022/09/15 13:39:39;;;;;;;4.85;2.50;;;23.20;99.90;;;21.81;78.39;98871.81;10256902;28;96607;-86
2022/09/15 13:45:41;;;;;;;3.25;1.27;;;23.20;99.90;;;21.72;78.71;98878.88;10282736;28;96625;-86
2022/09/15 13:50:59;;;;;;;1.10;0.55;;;23.10;99.90;;;21.64;79.22;98882.91;10271539;28;96744;-86
2022/09/15 13:56:10;;;;;;;7.75;3.58;;;23.00;99.90;;;21.59;79.50;98891.06;10290830;28;96616;-86
2022/09/15 14:01:14;;;;;;;7.53;3.00;;;23.00;99.90;;;21.57;80.19;98906.72;10293488;28;96928;-87
2022/09/15 14:06:25;;;;;;;10.73;4.03;;;23.00;99.90;;;21.53;81.04;98907.53;10282622;28;97210;-86
2022/09/15 14:11:32;;;;;;;3.88;1.10;;;23.00;99.90;;;21.35;81.71;98912.41;10320927;28;96761;-86
2022/09/15 14:16:37;;;;;;;1.33;0.90;;;22.90;99.90;;;21.27;81.79;98903.97;10287651;28;96656;-88
2022/09/15 14:21:48;;;;;;;2.00;0.90;;;22.70;99.90;;;21.14;82.58;98910.72;10294331;28;96743;-86
2022/09/15 14:26:59;;;;;;;1.58;0.73;;;22.60;99.90;;;21.04;83.30;98921.50;10308882;28;96494;-88
2022/09/15 14:32:02;;;;;;;1.02;0.70;;;22.50;99.90;;;20.83;84.02;98913.38;10310752;28;96530;-87
2022/09/15 14:37:19;;;;;;;1.67;0.70;;;22.30;99.90;;;20.60;84.71;98891.44;10292422;28;96574;-87
2022/09/15 14:42:30;;;;;;;2.03;0.80;;;22.10;99.90;;;20.19;85.21;98893.91;10293697;28;97154;-87
2022/09/15 14:47:33;;;;;;;2.05;0.70;;;21.70;99.90;;;19.67;86.19;98900.06;10293425;28;96665;-87
2022/09/15 14:52:42;;;;;;;1.85;0.80;;;21.30;99.90;;;19.21;87.89;98927.41;10292287;28;96823;-86
2022/09/15 14:58:12;;;;;;;2.88;0.88;;;20.80;99.90;;;18.91;89.61;98944.06;10292632;28;96526;-87
2022/09/15 15:03:42;;;;;;;2.40;0.70;;;20.40;99.90;;;18.70;90.76;98939.50;10312620;28;96413;-87
2022/09/15 15:09:01;;;;;;;1.95;1.00;;;20.20;99.90;;;18.52;92.25;98947.88;10306779;28;96518;-88
2022/09/15 15:14:11;;;;;;;1.83;1.08;;;20.00;99.90;;;18.41;93.58;98922.72;10293549;28;96489;-89
2022/09/15 15:19:32;;;;;;;1.57;0.90;;;19.80;99.90;;;18.32;94.34;98867.75;10290196;28;96533;-86
2022/09/15 15:24:41;;;;;;;1.90;0.80;;;19.80;99.90;;;18.27;95.00;98849.66;10290559;28;96633;-87
2022/09/15 15:29:45;;;;;;;1.20;0.77;;;19.70;99.90;;;18.23;95.54;98894.25;10289942;28;96608;-87
2022/09/15 15:35:01;;;;;;;1.50;0.95;;;19.70;99.90;;;18.15;96.27;98900.88;10273712;28;96505;-86
2022/09/15 15:40:12;;;;;;;2.28;0.93;;;19.60;99.90;;;18.10;96.99;98905.38;10290212;28;96643;-87
2022/09/15 15:45:24;;;;;;;1.15;0.70;;;19.50;99.90;;;18.05;97.86;98881.09;10291044;28;96528;-86
2022/09/15 15:50:31;;;;;;;1.65;0.73;;;19.50;99.90;;;18.07;98.22;98873.63;10276878;28;96556;-86
2022/09/15 15:55:40;;;;;;;1.65;0.85;;;19.50;99.90;;;18.11;99.03;98878.25;10294489;28;96669;-86
2022/09/15 16:00:57;;;;;;;1.27;0.60;;;19.60;99.90;;;18.19;99.15;98871.63;10290587;28;97630;-86
2022/09/15 16:06:01;;;;;;;1.60;1.00;;;19.70;99.90;;;18.26;99.72;98860.69;10290036;28;96571;-86
2022/09/15 16:11:09;;;;;;;1.92;0.80;;;19.70;99.90;;;18.32;100.00;98871.25;10283696;28;98016;-86
2022/09/15 16:16:24;;;;;;;2.42;1.20;;;19.80;99.90;;;18.38;100.00;98864.88;10272045;28;96812;-85
2022/09/15 16:21:37;;;;;;;1.73;1.02;;;19.80;99.90;;;18.44;100.00;98865.75;10304417;28;96726;-86
2022/09/15 16:26:40;;;;;;;2.65;1.48;;;19.90;99.90;;;18.45;100.00;98876.25;10274752;28;98129;-86
2022/09/15 16:31:43;;;;;;;1.48;1.00;;;19.90;99.90;;;18.46;100.00;98880.56;10301531;28;97171;-86
2022/09/15 16:36:46;;;;;;;2.10;0.90;;;19.90;99.90;;;18.46;100.00;98879.75;10294926;28;96831;-86
2022/09/15 16:41:49;;;;;;;1.48;1.02;;;19.90;99.90;;;18.40;100.00;98878.88;10297125;28;96591;-86
2022/09/15 16:46:52;;;;;;;2.63;1.13;;;19.80;99.90;;;18.34;100.00;98874.50;10310909;28;98384;-86
2022/09/15 16:51:55;;;;;;;2.38;1.13;;;19.80;99.90;;;18.26;100.00;98876.81;10297053;28;96767;-85
2022/09/15 16:56:58;;;;;;;1.52;0.95;;;19.70;99.90;;;18.15;100.00;98892.00;10319199;28;97317;-85
2022/09/15 17:02:01;;;;;;;1.60;0.93;;;19.60;99.90;;;18.10;100.00;98891.94;10293461;28;96614;-85
2022/09/15 17:07:04;;;;;;;1.88;1.10;;;19.60;99.90;;;18.03;100.00;98894.78;10304334;28;98271;-86
2022/09/15 17:12:10;;;;;;;2.28;0.90;;;19.50;99.90;;;17.97;100.00;98897.66;10300455;28;97820;-86
2022/09/15 17:17:24;;;;;;;1.80;1.10;;;19.40;99.90;;;17.84;100.00;98891.56;10317900;28;96733;-86
2022/09/15 17:22:26;;;;;;;3.22;1.05;;;19.30;99.90;;;17.73;100.00;98880.94;10294593;28;97125;-85
2022/09/15 17:27:29;;;;;;;1.67;0.90;;;19.20;99.90;;;17.68;100.00;98878.94;10295027;28;96615;-85
2022/09/15 17:32:32;;;;;;;3.90;1.15;;;19.10;99.90;;;17.60;100.00;98880.19;10284602;28;98255;-85
2022/09/15 17:37:36;;;;;;;1.73;1.15;;;19.10;99.90;;;17.56;100.00;98872.84;10309966;28;96561;-85
2022/09/15 17:42:40;;;;;;;3.25;1.20;;;19.10;99.90;;;17.52;100.00;98880.59;10298123;28;96779;-85
2022/09/15 17:47:42;;;;;;;2.30;1.00;;;19.00;99.90;;;17.49;100.00;98882.94;10294020;28;96608;-85
2022/09/15 17:52:46;;;;;;;2.38;1.20;;;19.00;99.90;;;17.41;100.00;98873.44;10310717;28;96474;-84
2022/09/15 17:57:49;;;;;;;1.88;1.35;;;18.90;99.90;;;17.34;100.00;98876.28;10294692;28;96598;-85
2022/09/15 18:02:55;;;;;;;1.80;1.27;;;18.80;99.90;;;17.31;100.00;98884.81;10254975;28;97997;-83
2022/09/15 18:08:02;;;;;;;1.95;1.40;;;18.80;99.90;;;17.28;100.00;98879.13;10310035;28;96669;-85
2022/09/15 18:13:05;;;;;;;2.50;1.63;;;18.70;99.90;;;17.23;100.00;98863.75;10294596;28;96557;-87
2022/09/15 18:18:16;;;;;;;2.60;1.80;;;18.70;99.90;;;17.21;100.00;98870.41;10295749;28;97778;-87
2022/09/15 18:23:21;;;;;;;;;;;18.70;99.90;;;17.17;100.00;98870.09;10297607;28;96709;-86
2022/09/15 18:28:24;;;;;;;2.20;1.30;;;18.60;99.90;;;17.15;100.00;98868.69;10322763;28;97128;-85
2022/09/15 18:33:26;;;;;;;1.27;1.10;;;18.60;99.90;;;17.11;100.00;98877.25;10287539;28;96644;-84
2022/09/15 18:38:30;;;;;;;0.93;0.82;;;18.60;99.90;;;17.11;100.00;98884.47;10291861;28;96717;-85
2022/09/15 18:43:35;;;;;;;2.33;1.40;;;18.60;99.90;;;17.10;100.00;98882.84;10289781;28;98334;-84
2022/09/15 18:48:38;;;;;;;2.15;1.23;;;18.60;99.90;;;17.12;100.00;98876.19;10256277;28;98057;-84
2022/09/15 18:53:40;;;;;;;2.22;1.30;;;18.60;99.90;;;17.12;100.00;98888.78;10321196;28;96558;-84
2022/09/15 18:58:44;;;;;;;1.60;1.00;;;18.60;99.90;;;17.06;100.00;98901.31;10286998;28;97349;-85
2022/09/15 19:03:47;;;;;;;0.88;0.73;;;18.60;99.90;;;17.04;100.00;98910.66;10302934;28;96757;-84
2022/09/15 19:08:50;;;;;;;1.33;0.80;;;18.60;99.90;;;17.02;100.00;98915.44;10257809;28;98176;-85
2022/09/15 19:13:53;;;;;;;1.30;0.77;;;18.60;99.90;;;17.02;100.00;98931.53;10300992;28;97799;-84
2022/09/15 19:18:55;;;;;;;1.23;0.90;;;18.60;99.90;;;17.00;100.00;98931.78;10268692;28;96651;-84
2022/09/15 19:23:58;;;;;;;1.83;0.80;;;18.60;99.90;;;16.99;100.00;98937.41;10293582;28;98288;-84
2022/09/15 19:29:03;;;;;;;1.15;0.85;;;18.60;99.90;;;16.96;100.00;98943.22;10286925;28;96622;-84
2022/09/15 19:34:05;;;;;;;1.40;1.00;;;18.60;99.90;;;16.93;100.00;98938.38;10294154;28;97197;-85
2022/09/15 19:39:11;;;;;;;2.85;0.73;;;18.60;99.90;;;16.92;100.00;98944.78;10278833;28;97330;-84
2022/09/15 19:44:15;;;;;;;1.98;1.23;;;18.50;99.90;;;16.89;100.00;98945.25;10288203;28;98722;-85
2022/09/15 19:49:18;;;;;;;1.90;1.00;;;18.50;99.90;;;16.91;100.00;98935.91;10286300;28;96629;-85
2022/09/15 19:54:26;;;;;;;2.00;1.13;;;18.50;99.90;;;16.97;100.00;98945.69;10258655;28;98464;-84
2022/09/15 19:59:30;;;;;;;2.30;1.50;;;18.50;99.90;;;17.03;100.00;98950.09;10323378;28;96452;-86
2022/09/15 20:04:33;;;;;;;1.60;1.08;;;18.60;99.90;;;17.07;100.00;98945.06;10277637;28;97562;-84
2022/09/15 20:09:36;;;;;;;2.67;1.08;;;18.60;99.90;;;17.11;100.00;98946.22;10262123;28;98211;-85
2022/09/15 20:14:40;;;;;;;2.17;1.25;;;18.60;99.90;;;17.11;100.00;98955.09;10283986;28;97586;-85
2022/09/15 20:19:43;;;;;;;2.90;1.67;;;18.60;99.90;;;17.13;100.00;98958.31;10283269;28;96689;-84
2022/09/15 20:24:45;;;;;;;3.67;1.58;;;18.60;99.90;;;17.15;100.00;98965.31;10291649;28;96613;-84
2022/09/15 20:29:48;;;;;;;2.70;2.13;;;18.60;99.90;;;17.15;100.00;98965.31;10274892;28;96493;-83
2022/09/15 20:34:51;;;;;;;2.65;1.80;;;18.60;99.90;;;17.14;100.00;98972.56;10265295;28;98418;-83
2022/09/15 20:39:54;;;;;;;2.47;1.70;;;18.60;99.90;;;17.15;100.00;98965.31;10287519;28;96745;-83
2022/09/15 20:44:57;;;;;;;3.63;1.55;;;18.60;99.90;;;17.13;100.00;98973.63;10269515;28;96631;-84
2022/09/15 20:50:00;;;;;;;3.45;2.03;;;18.60;99.90;;;17.12;100.00;98975.50;10265139;28;96736;-84
2022/09/15 20:55:03;;;;;;;3.25;1.83;;;18.60;99.90;;;17.10;100.00;98976.81;10288164;28;98414;-84
2022/09/15 21:00:08;;;;;;;3.55;1.90;;;18.60;99.90;;;17.10;100.00;98995.59;10251831;28;97715;-84
2022/09/15 21:05:11;;;;;;;2.40;1.40;;;18.50;99.90;;;17.13;100.00;98992.41;10257639;28;97374;-84
2022/09/15 21:10:14;;;;;;;1.75;1.42;;;18.60;99.90;;;17.15;100.00;99005.59;10319087;28;98397;-83
2022/09/15 21:15:17;;;;;;;4.05;1.77;;;18.60;99.90;;;17.17;100.00;99007.00;10284777;28;98379;-85
2022/09/15 21:20:20;;;;;;;7.47;2.10;;;18.60;99.90;;;17.17;100.00;99004.31;10309943;28;97003;-85
2022/09/15 21:25:23;;;;;;;1.92;1.55;;;18.70;99.90;;;17.20;100.00;99009.19;10306485;28;96670;-85
2022/09/15 21:30:25;;;;;;;2.42;2.00;;;18.70;99.90;;;17.21;100.00;99015.38;10275997;28;98269;-86